createdAt,value
2018-11-11T00:00:12.664Z,16.70
2018-11-11T00:02:39.841Z,17.03
2018-11-11T00:05:07.954Z,16.07
2018-11-11T00:07:35.121Z,18.27
2018-11-11T00:10:02.331Z,21.33
2018-11-11T00:12:29.483Z,19.17
2018-11-11T00:14:56.644Z,26.20
2018-11-11T00:17:23.780Z,19.13
2018-11-11T00:19:50.938Z,17.03
2018-11-11T00:22:18.112Z,18.83
2018-11-11T00:24:45.307Z,20.03
2018-11-11T00:27:12.491Z,18.47
2018-11-11T00:29:39.648Z,14.87
2018-11-11T00:32:07.228Z,16.50
2018-11-11T00:34:34.474Z,18.60
2018-11-11T00:37:01.656Z,14.60
2018-11-11T00:39:28.839Z,15.87
2018-11-11T00:41:56.024Z,15.30
2018-11-11T00:44:23.219Z,18.30
2018-11-11T00:46:50.359Z,15.57
2018-11-11T00:49:17.513Z,19.60
2018-11-11T00:51:44.677Z,16.07
2018-11-11T00:54:11.836Z,15.10
2018-11-11T00:56:38.980Z,15.40
2018-11-11T00:59:06.406Z,19.03
2018-11-11T01:01:33.551Z,14.83
2018-11-11T01:04:07.507Z,15.43
2018-11-11T01:06:34.671Z,14.50
2018-11-11T01:09:01.869Z,13.27
2018-11-11T01:11:29.062Z,15.10
2018-11-11T01:13:56.213Z,14.73
2018-11-11T01:16:23.377Z,14.63
2018-11-11T01:18:50.560Z,19.03
2018-11-11T01:21:17.720Z,18.10
2018-11-11T01:23:44.868Z,21.57
2018-11-11T01:26:12.040Z,18.30
2018-11-11T01:28:39.187Z,18.73
2018-11-11T01:31:06.632Z,18.00
2018-11-11T01:33:33.788Z,17.33
2018-11-11T01:36:00.927Z,15.90
2018-11-11T01:38:28.108Z,21.63
2018-11-11T01:40:55.221Z,20.50
2018-11-11T01:43:22.383Z,20.27
2018-11-11T01:45:49.616Z,18.07
2018-11-11T01:48:16.783Z,20.83
2018-11-11T01:50:43.928Z,18.43
2018-11-11T01:53:11.074Z,18.00
2018-11-11T01:55:38.223Z,18.90
2018-11-11T01:58:05.537Z,17.17
2018-11-11T02:00:32.698Z,15.27
2018-11-11T02:02:59.877Z,17.63
2018-11-11T02:05:27.056Z,18.07
2018-11-11T02:07:54.229Z,15.13
2018-11-11T02:10:21.418Z,13.47
2018-11-11T02:12:48.607Z,16.60
2018-11-11T02:15:16.551Z,16.60
2018-11-11T02:17:43.710Z,18.03
2018-11-11T02:20:13.638Z,16.33
2018-11-11T02:22:40.988Z,13.13
2018-11-11T02:25:08.761Z,15.57
2018-11-11T02:27:35.923Z,13.10
2018-11-11T02:30:03.663Z,13.13
2018-11-11T02:32:30.947Z,12.77
2018-11-11T02:34:58.091Z,12.07
2018-11-11T02:37:25.268Z,12.70
2018-11-11T02:39:52.384Z,10.67
2018-11-11T02:42:19.524Z,14.37
2018-11-11T02:44:46.706Z,7.90
2018-11-11T02:47:13.819Z,9.57
2018-11-11T02:49:40.966Z,7.10
2018-11-11T02:52:08.145Z,7.67
2018-11-11T02:54:35.294Z,7.10
2018-11-11T02:57:02.444Z,6.83
2018-11-11T02:59:29.577Z,7.20
2018-11-11T03:01:56.847Z,8.30
2018-11-11T03:04:24.038Z,6.97
2018-11-11T03:06:51.103Z,5.83
2018-11-11T03:09:18.271Z,5.63
2018-11-11T03:11:45.402Z,5.80
2018-11-11T03:14:12.520Z,6.20
2018-11-11T03:16:39.657Z,8.17
2018-11-11T03:19:07.288Z,5.10
2018-11-11T03:21:34.410Z,4.27
2018-11-11T03:24:01.803Z,4.50
2018-11-11T03:26:28.949Z,6.17
2018-11-11T03:28:56.108Z,6.73
2018-11-11T03:31:23.458Z,7.50
2018-11-11T03:33:50.602Z,5.70
2018-11-11T03:36:17.750Z,6.67
2018-11-11T03:38:45.100Z,7.27
2018-11-11T03:41:12.231Z,6.57
2018-11-11T03:43:39.367Z,6.50
2018-11-11T03:46:06.507Z,6.50
2018-11-11T03:48:33.690Z,7.50
2018-11-11T03:51:00.868Z,6.50
2018-11-11T03:53:28.000Z,8.43
2018-11-11T03:55:55.144Z,10.27
2018-11-11T03:58:22.280Z,8.00
2018-11-11T04:00:49.425Z,6.87
2018-11-11T04:03:16.589Z,8.23
2018-11-11T04:05:43.787Z,7.70
2018-11-11T04:08:11.016Z,7.90
2018-11-11T04:10:38.155Z,8.10
2018-11-11T04:13:05.306Z,6.80
2018-11-11T04:15:32.498Z,7.93
2018-11-11T04:17:59.686Z,10.50
2018-11-11T04:20:26.822Z,9.93
2018-11-11T04:22:53.959Z,17.73
2018-11-11T04:25:21.090Z,11.13
2018-11-11T04:27:48.230Z,12.90
2018-11-11T04:30:15.595Z,13.03
2018-11-11T04:32:43.043Z,20.07
2018-11-11T04:35:10.486Z,10.33
2018-11-11T04:37:37.651Z,12.20
2018-11-11T04:40:06.838Z,13.90
2018-11-11T04:42:33.983Z,11.87
2018-11-11T04:45:01.135Z,16.80
2018-11-11T04:47:28.264Z,13.00
2018-11-11T04:49:55.415Z,15.53
2018-11-11T04:52:22.574Z,16.10
2018-11-11T04:54:49.719Z,14.40
2018-11-11T04:57:16.860Z,14.43
2018-11-11T04:59:44.198Z,18.67
2018-11-11T05:02:11.353Z,17.67
2018-11-11T05:04:38.682Z,18.50
2018-11-11T05:07:06.327Z,18.50
2018-11-11T05:09:33.446Z,20.63
2018-11-11T05:12:00.582Z,21.27
2018-11-11T05:14:27.731Z,17.27
2018-11-11T05:16:54.894Z,18.77
2018-11-11T05:19:22.062Z,18.63
2018-11-11T05:21:49.233Z,18.53
2018-11-11T05:24:16.361Z,15.93
2018-11-11T05:26:43.492Z,17.70
2018-11-11T05:29:10.662Z,18.67
2018-11-11T05:31:37.818Z,18.27
2018-11-11T05:34:04.946Z,16.37
2018-11-11T05:36:32.098Z,16.13
2018-11-11T05:38:59.240Z,14.17
2018-11-11T05:41:26.437Z,14.53
2018-11-11T05:43:53.679Z,17.80
2018-11-11T05:46:20.803Z,13.97
2018-11-11T05:48:47.936Z,20.60
2018-11-11T05:51:15.086Z,12.23
2018-11-11T05:53:42.237Z,18.07
2018-11-11T05:56:09.374Z,13.17
2018-11-11T05:58:36.554Z,17.47
2018-11-11T06:01:04.223Z,10.77
2018-11-11T06:03:31.364Z,11.57
2018-11-11T06:05:58.492Z,17.90
2018-11-11T06:08:25.638Z,13.87
2018-11-11T06:10:52.774Z,14.10
2018-11-11T06:13:19.934Z,18.67
2018-11-11T06:15:47.082Z,15.33
2018-11-11T06:18:14.281Z,11.90
2018-11-11T06:20:41.442Z,12.07
2018-11-11T06:23:08.593Z,9.37
2018-11-11T06:25:35.789Z,13.73
2018-11-11T06:28:02.957Z,14.13
2018-11-11T06:30:30.102Z,12.87
2018-11-11T06:32:57.215Z,13.23
2018-11-11T06:35:24.342Z,14.53
2018-11-11T06:37:51.470Z,15.43
2018-11-11T06:40:18.613Z,9.63
2018-11-11T06:42:45.757Z,16.77
2018-11-11T06:45:14.100Z,12.23
2018-11-11T06:47:42.071Z,14.70
2018-11-11T06:50:10.446Z,12.07
2018-11-11T06:52:37.992Z,10.80
2018-11-11T06:55:05.154Z,12.47
2018-11-11T06:57:32.299Z,13.47
2018-11-11T06:59:59.458Z,11.50
2018-11-11T07:02:31.515Z,12.07
2018-11-11T07:04:58.642Z,12.67
2018-11-11T07:07:25.821Z,14.00
2018-11-11T07:09:52.902Z,12.37
2018-11-11T07:12:20.035Z,14.47
2018-11-11T07:14:47.167Z,18.70
2018-11-11T07:17:14.302Z,10.87
2018-11-11T07:19:41.546Z,17.33
2018-11-11T07:22:08.702Z,12.43
2018-11-11T07:24:35.834Z,10.93
2018-11-11T07:27:02.978Z,12.70
2018-11-11T07:29:30.130Z,9.33
2018-11-11T07:31:58.159Z,11.83
2018-11-11T07:34:25.278Z,8.93
2018-11-11T07:36:52.508Z,11.90
2018-11-11T07:39:19.659Z,11.50
2018-11-11T07:41:46.800Z,12.23
2018-11-11T07:44:13.934Z,12.13
2018-11-11T07:46:41.047Z,9.03
2018-11-11T07:49:08.163Z,10.50
2018-11-11T07:51:35.758Z,8.63
2018-11-11T07:54:02.902Z,10.27
2018-11-11T07:56:30.043Z,17.30
2018-11-11T07:58:57.169Z,6.90
2018-11-11T08:01:24.492Z,7.10
2018-11-11T08:03:51.619Z,7.77
2018-11-11T08:06:18.871Z,6.40
2018-11-11T08:08:46.022Z,8.40
2018-11-11T08:11:24.823Z,6.73
2018-11-11T08:13:51.987Z,6.37
2018-11-11T08:16:19.115Z,9.43
2018-11-11T08:18:46.234Z,4.90
2018-11-11T08:21:13.552Z,8.77
2018-11-11T08:23:40.714Z,9.03
2018-11-11T08:26:07.872Z,5.37
2018-11-11T08:28:35.002Z,2.73
2018-11-11T08:31:02.158Z,3.93
2018-11-11T08:33:29.308Z,1.90
2018-11-11T08:35:56.435Z,6.20
2018-11-11T08:38:23.583Z,6.13
2018-11-11T08:40:50.727Z,3.83
2018-11-11T08:43:17.856Z,2.63
2018-11-11T08:45:44.990Z,5.17
2018-11-11T08:48:12.148Z,2.73
2018-11-11T08:50:39.274Z,1.63
2018-11-11T08:53:06.443Z,4.70
2018-11-11T08:55:33.588Z,4.33
2018-11-11T08:58:00.806Z,3.63
2018-11-11T09:00:27.918Z,2.80
2018-11-11T09:02:55.188Z,2.90
2018-11-11T09:05:22.374Z,2.40
2018-11-11T09:07:49.521Z,2.37
2018-11-11T09:10:16.676Z,3.97
2018-11-11T09:12:43.825Z,2.83
2018-11-11T09:15:13.037Z,3.43
2018-11-11T09:17:41.103Z,1.33
2018-11-11T09:20:08.854Z,2.33
2018-11-11T09:22:35.982Z,1.07
2018-11-11T09:25:03.335Z,1.73
2018-11-11T09:27:30.466Z,4.50
2018-11-11T09:29:57.605Z,1.77
2018-11-11T09:32:24.755Z,2.30
2018-11-11T09:34:51.894Z,2.80
2018-11-11T09:37:19.022Z,5.03
2018-11-11T09:39:46.175Z,4.20
2018-11-11T09:42:13.302Z,3.73
2018-11-11T09:44:40.481Z,2.93
2018-11-11T09:47:07.628Z,4.23
2018-11-11T09:49:34.767Z,2.97
2018-11-11T09:52:02.001Z,6.63
2018-11-11T09:54:29.215Z,4.57
2018-11-11T09:56:56.539Z,6.60
2018-11-11T09:59:23.712Z,4.57
2018-11-11T10:01:50.870Z,3.93
2018-11-11T10:04:26.321Z,1.93
2018-11-11T10:06:57.946Z,3.03
2018-11-11T10:09:37.963Z,2.57
2018-11-11T10:12:11.461Z,2.93
2018-11-11T10:14:46.265Z,2.33
2018-11-11T10:17:24.150Z,3.97
2018-11-11T10:19:58.792Z,2.53
2018-11-11T10:24:34.936Z,4.00
2018-11-11T10:27:13.006Z,3.80
2018-11-11T10:29:49.262Z,2.83
2018-11-11T10:32:33.264Z,3.17
2018-11-11T10:36:05.889Z,2.83
2018-11-11T10:38:49.596Z,4.20
2018-11-11T10:41:23.834Z,3.70
2018-11-11T10:43:55.778Z,2.37
2018-11-11T10:46:27.959Z,3.33
2018-11-11T10:49:00.106Z,4.00
2018-11-11T10:51:27.291Z,6.63
2018-11-11T10:53:54.413Z,2.43
2018-11-11T10:56:21.541Z,3.70
2018-11-11T10:58:48.682Z,5.03
2018-11-11T11:01:17.658Z,6.60
2018-11-11T11:03:44.783Z,6.20
2018-11-11T11:06:12.063Z,3.37
2018-11-11T11:08:43.731Z,4.07
2018-11-11T11:11:10.872Z,2.90
2018-11-11T11:13:38.076Z,3.47
2018-11-11T11:16:05.278Z,8.03
2018-11-11T11:18:32.414Z,8.53
2018-11-11T11:20:59.562Z,8.03
2018-11-11T11:23:26.714Z,8.23
2018-11-11T11:25:53.860Z,5.73
2018-11-11T11:28:20.989Z,5.50
2018-11-11T11:30:48.174Z,3.00
2018-11-11T11:33:15.319Z,4.80
2018-11-11T11:35:42.650Z,3.10
2018-11-11T11:38:09.845Z,5.33
2018-11-11T11:40:37.939Z,7.33
2018-11-11T11:43:05.151Z,4.03
2018-11-11T11:45:32.280Z,3.47
2018-11-11T11:47:59.420Z,7.30
2018-11-11T11:50:26.616Z,5.00
2018-11-11T11:52:53.828Z,4.93
2018-11-11T11:55:20.885Z,11.43
2018-11-11T11:57:59.997Z,7.27
2018-11-11T12:00:27.148Z,4.03
2018-11-11T12:02:54.275Z,7.27
2018-11-11T12:05:21.442Z,3.17
2018-11-11T12:07:48.578Z,4.00
2018-11-11T12:10:15.719Z,3.47
2018-11-11T12:12:42.879Z,5.97
2018-11-11T12:15:10.057Z,4.80
2018-11-11T12:17:37.214Z,6.27
2018-11-11T12:20:05.051Z,5.97
2018-11-11T12:22:32.235Z,4.80
2018-11-11T12:24:59.360Z,3.53
2018-11-11T12:27:26.538Z,7.70
2018-11-11T12:29:53.698Z,8.33
2018-11-11T12:32:20.838Z,4.73
2018-11-11T12:34:47.998Z,6.47
2018-11-11T12:37:15.179Z,6.20
2018-11-11T12:39:42.409Z,2.90
2018-11-11T12:42:09.472Z,6.00
2018-11-11T12:44:36.675Z,5.40
2018-11-11T12:47:04.310Z,9.53
2018-11-11T12:49:31.447Z,8.87
2018-11-11T12:51:58.565Z,6.20
2018-11-11T12:54:25.686Z,5.33
2018-11-11T12:56:52.818Z,4.50
2018-11-11T12:59:19.942Z,2.90
2018-11-11T13:01:47.074Z,8.20
2018-11-11T13:04:14.234Z,9.53
2018-11-11T13:06:41.363Z,7.07
2018-11-11T13:09:09.166Z,7.07
2018-11-11T13:11:36.389Z,7.60
2018-11-11T13:14:03.955Z,5.10
2018-11-11T13:16:31.098Z,2.90
2018-11-11T13:18:58.225Z,9.47
2018-11-11T13:21:25.365Z,6.47
2018-11-11T13:23:52.503Z,7.27
2018-11-11T13:26:19.656Z,9.73
2018-11-11T13:28:46.783Z,10.93
2018-11-11T13:31:13.916Z,9.87
2018-11-11T13:33:41.063Z,5.57
2018-11-11T13:36:08.207Z,9.50
2018-11-11T13:38:35.464Z,7.90
2018-11-11T13:41:02.482Z,4.27
2018-11-11T13:43:29.614Z,5.37
2018-11-11T13:45:56.886Z,11.87
2018-11-11T13:48:24.054Z,19.27
2018-11-11T13:50:51.259Z,13.07
2018-11-11T13:53:18.410Z,10.47
2018-11-11T13:55:45.593Z,11.83
2018-11-11T13:58:12.721Z,14.17
2018-11-11T14:00:39.866Z,11.73
2018-11-11T14:03:07.018Z,13.30
2018-11-11T14:05:34.165Z,14.57
2018-11-11T14:08:01.356Z,8.47
2018-11-11T14:10:28.451Z,19.67
2018-11-11T14:12:55.616Z,6.33
2018-11-11T14:15:24.598Z,4.63
2018-11-11T14:17:52.346Z,10.67
2018-11-11T14:20:20.788Z,6.80
2018-11-11T14:22:48.710Z,7.13
2018-11-11T14:25:22.376Z,8.57
2018-11-11T14:27:49.538Z,12.20
2018-11-11T14:30:19.058Z,9.70
2018-11-11T14:32:47.197Z,10.40
2018-11-11T14:35:14.351Z,10.93
2018-11-11T14:37:41.858Z,13.47
2018-11-11T14:40:13.168Z,10.17
2018-11-11T14:42:40.568Z,8.20
2018-11-11T14:45:08.926Z,7.50
2018-11-11T14:47:36.150Z,13.70
2018-11-11T14:50:04.650Z,13.60
2018-11-11T14:52:31.859Z,9.80
2018-11-11T14:54:59.078Z,8.57
2018-11-11T14:57:26.274Z,10.80
2018-11-11T14:59:53.409Z,11.37
2018-11-11T15:02:20.576Z,14.37
2018-11-11T15:04:47.700Z,10.53
2018-11-11T15:07:14.836Z,5.20
2018-11-11T15:09:41.986Z,7.30
2018-11-11T15:12:09.163Z,6.87
2018-11-11T15:14:36.303Z,12.77
2018-11-11T15:17:03.478Z,7.93
2018-11-11T15:19:30.793Z,3.70
2018-11-11T15:21:57.789Z,5.80
2018-11-11T15:24:25.082Z,5.40
2018-11-11T15:26:52.237Z,5.87
2018-11-11T15:29:19.388Z,5.47
2018-11-11T15:31:46.558Z,8.87
2018-11-11T15:34:13.719Z,5.47
2018-11-11T15:36:40.862Z,5.20
2018-11-11T15:39:09.215Z,6.83
2018-11-11T15:41:36.397Z,8.43
2018-11-11T15:44:03.775Z,10.87
2018-11-11T15:46:30.903Z,8.03
2018-11-11T15:48:58.075Z,7.90
2018-11-11T15:51:25.354Z,14.10
2018-11-11T15:53:52.521Z,11.37
2018-11-11T15:56:26.363Z,12.20
2018-11-11T15:58:53.527Z,8.27
2018-11-11T16:01:20.644Z,15.50
2018-11-11T16:03:47.782Z,5.47
2018-11-11T16:06:14.955Z,10.00
2018-11-11T16:08:42.077Z,12.73
2018-11-11T16:11:09.230Z,9.67
2018-11-11T16:13:36.364Z,11.67
2018-11-11T16:16:03.726Z,15.20
2018-11-11T16:18:30.916Z,13.30
2018-11-11T16:20:58.386Z,14.53
2018-11-11T16:23:25.595Z,12.43
2018-11-11T16:25:52.674Z,9.87
2018-11-11T16:28:19.798Z,9.70
2018-11-11T16:30:46.965Z,6.50
2018-11-11T16:33:14.098Z,7.30
2018-11-11T16:35:41.298Z,15.83
2018-11-11T16:38:08.418Z,15.90
2018-11-11T16:40:36.533Z,19.17
2018-11-11T16:43:03.849Z,16.40
2018-11-11T16:45:32.121Z,20.40
2018-11-11T16:47:59.338Z,18.10
2018-11-11T16:50:31.339Z,17.43
2018-11-11T16:53:00.939Z,18.47
2018-11-11T16:55:29.136Z,21.80
2018-11-11T16:57:56.316Z,32.07
2018-11-11T17:00:24.850Z,26.07
2018-11-11T17:02:52.272Z,21.83
2018-11-11T17:05:20.793Z,16.97
2018-11-11T17:07:48.252Z,7.50
2018-11-11T17:10:16.723Z,4.63
2018-11-11T17:12:44.796Z,6.17
2018-11-11T17:15:13.486Z,7.93
2018-11-11T17:17:40.647Z,3.97
2018-11-11T17:20:10.039Z,4.97
2018-11-11T17:22:37.587Z,5.77
2018-11-11T17:25:05.796Z,8.17
2018-11-11T17:27:32.943Z,6.07
2018-11-11T17:30:00.105Z,5.13
2018-11-11T17:32:27.424Z,6.83
2018-11-11T17:34:54.355Z,7.97
2018-11-11T17:37:21.518Z,6.63
2018-11-11T17:39:48.644Z,5.60
2018-11-11T17:42:15.774Z,7.27
2018-11-11T17:44:42.949Z,4.90
2018-11-11T17:47:10.255Z,5.70
2018-11-11T17:49:37.437Z,6.23
2018-11-11T17:52:04.794Z,5.53
2018-11-11T17:54:31.954Z,10.87
2018-11-11T17:56:59.078Z,6.47
2018-11-11T17:59:26.238Z,8.03
2018-11-11T18:01:53.427Z,5.17
2018-11-11T18:04:20.572Z,4.53
2018-11-11T18:06:47.775Z,8.60
2018-11-11T18:09:14.878Z,2.97
2018-11-11T18:11:41.995Z,8.93
2018-11-11T18:14:09.328Z,7.07
2018-11-11T18:16:36.472Z,5.23
2018-11-11T18:19:04.111Z,6.93
2018-11-11T18:21:31.284Z,5.33
2018-11-11T18:23:58.469Z,8.37
2018-11-11T18:26:25.616Z,4.03
2018-11-11T18:28:52.811Z,2.97
2018-11-11T18:31:19.978Z,7.23
2018-11-11T18:33:47.113Z,4.70
2018-11-11T18:36:14.262Z,5.70
2018-11-11T18:38:41.395Z,3.10
2018-11-11T18:41:08.531Z,2.80
2018-11-11T18:43:35.666Z,6.40
2018-11-11T18:46:02.810Z,4.73
2018-11-11T18:48:30.010Z,6.13
2018-11-11T18:50:57.163Z,2.73
2018-11-11T18:53:24.319Z,5.37
2018-11-11T18:55:51.454Z,5.97
2018-11-11T18:58:18.613Z,4.53
2018-11-11T19:00:45.787Z,6.10
2018-11-11T19:03:12.938Z,10.77
2018-11-11T19:05:40.090Z,5.67
2018-11-11T19:08:07.258Z,9.17
2018-11-11T19:10:34.584Z,4.17
2018-11-11T19:13:04.112Z,12.00
2018-11-11T19:15:31.330Z,7.60
2018-11-11T19:17:58.494Z,4.23
2018-11-11T19:20:26.068Z,6.27
2018-11-11T19:22:53.416Z,7.00
2018-11-11T19:25:21.912Z,6.53
2018-11-11T19:27:50.092Z,6.07
2018-11-11T19:30:18.528Z,8.73
2018-11-11T19:32:46.268Z,5.33
2018-11-11T19:35:14.092Z,5.90
2018-11-11T19:37:41.951Z,6.63
2018-11-11T19:40:11.252Z,8.07
2018-11-11T19:42:38.709Z,7.97
2018-11-11T19:45:07.106Z,7.73
2018-11-11T19:47:34.270Z,5.50
2018-11-11T19:50:01.444Z,5.93
2018-11-11T19:52:28.610Z,6.17
2018-11-11T19:54:55.817Z,6.83
2018-11-11T19:57:22.998Z,7.57
2018-11-11T19:59:50.188Z,10.97
2018-11-11T20:02:17.322Z,7.87
2018-11-11T20:04:44.474Z,6.93
2018-11-11T20:07:11.627Z,3.93
2018-11-11T20:09:38.796Z,7.63
2018-11-11T20:12:05.941Z,4.13
2018-11-11T20:14:33.079Z,5.47
2018-11-11T20:17:00.220Z,5.77
2018-11-11T20:19:27.398Z,7.23
2018-11-11T20:21:54.531Z,3.67
2018-11-11T20:24:21.749Z,2.57
2018-11-11T20:26:48.854Z,4.20
2018-11-11T20:29:15.982Z,4.07
2018-11-11T20:31:43.217Z,4.97
2018-11-11T20:34:10.421Z,4.87
2018-11-11T20:36:37.529Z,4.90
2018-11-11T20:39:07.263Z,3.80
2018-11-11T20:41:34.433Z,7.00
2018-11-11T20:44:01.591Z,3.83
2018-11-11T20:46:28.738Z,4.53
2018-11-11T20:48:55.915Z,2.87
2018-11-11T20:51:23.090Z,4.17
2018-11-11T20:53:50.234Z,3.30
2018-11-11T20:56:17.551Z,8.73
2018-11-11T20:58:44.669Z,2.63
2018-11-11T21:01:11.818Z,2.67
2018-11-11T21:03:38.996Z,3.60
2018-11-11T21:06:06.161Z,3.67
2018-11-11T21:08:33.309Z,3.77
2018-11-11T21:11:00.460Z,4.07
2018-11-11T21:13:27.622Z,4.97
2018-11-11T21:15:54.994Z,3.10
2018-11-11T21:18:22.171Z,4.40
2018-11-11T21:20:49.366Z,3.03
2018-11-11T21:23:16.506Z,3.77
2018-11-11T21:25:43.641Z,6.50
2018-11-11T21:28:10.823Z,3.57
2018-11-11T21:30:37.974Z,5.70
2018-11-11T21:33:05.156Z,4.93
2018-11-11T21:35:32.307Z,5.10
2018-11-11T21:37:59.481Z,4.80
2018-11-11T21:40:27.172Z,4.30
2018-11-11T21:42:54.962Z,9.23
2018-11-11T21:45:23.118Z,3.53
2018-11-11T21:47:50.267Z,5.57
2018-11-11T21:50:18.749Z,3.43
2018-11-11T21:52:52.639Z,5.17
2018-11-11T21:55:19.802Z,6.53
2018-11-11T21:57:46.918Z,5.83
2018-11-11T22:00:14.045Z,8.23
2018-11-11T22:02:41.695Z,6.73
2018-11-11T22:05:10.242Z,4.70
2018-11-11T22:07:37.807Z,7.23
2018-11-11T22:10:07.189Z,7.20
2018-11-11T22:12:34.338Z,9.67
2018-11-11T22:15:01.455Z,5.93
2018-11-11T22:17:28.610Z,6.60
2018-11-11T22:19:55.743Z,7.27
2018-11-11T22:22:22.974Z,4.10
2018-11-11T22:24:50.337Z,3.80
2018-11-11T22:27:17.518Z,4.53
2018-11-11T22:29:44.634Z,12.50
2018-11-11T22:32:11.776Z,4.17
2018-11-11T22:34:38.915Z,5.67
2018-11-11T22:37:06.515Z,5.77
2018-11-11T22:39:33.692Z,4.50
2018-11-11T22:42:00.843Z,3.60
2018-11-11T22:44:27.984Z,3.27
2018-11-11T22:46:55.123Z,4.27
2018-11-11T22:49:22.275Z,3.80
2018-11-11T22:51:49.414Z,5.17
2018-11-11T22:54:16.558Z,6.60
2018-11-11T22:56:43.779Z,2.77
2018-11-11T22:59:10.915Z,2.77
2018-11-11T23:01:38.090Z,5.93
2018-11-11T23:04:05.257Z,3.53
2018-11-11T23:06:32.398Z,3.33
2018-11-11T23:08:59.543Z,4.30
2018-11-11T23:11:26.692Z,6.60
2018-11-11T23:13:53.838Z,5.30
2018-11-11T23:16:20.986Z,3.83
2018-11-11T23:18:48.126Z,6.43
2018-11-11T23:21:15.247Z,5.80
2018-11-11T23:23:42.403Z,3.10
2018-11-11T23:26:09.548Z,3.43
2018-11-11T23:28:36.703Z,6.47
2018-11-11T23:31:04.202Z,2.10
2018-11-11T23:33:31.322Z,5.23
2018-11-11T23:35:58.443Z,5.53
2018-11-11T23:38:25.600Z,4.23
2018-11-11T23:40:52.762Z,2.97
2018-11-11T23:43:19.882Z,3.97
2018-11-11T23:45:47.020Z,3.53
2018-11-11T23:48:14.151Z,4.30
2018-11-11T23:50:41.305Z,4.53
2018-11-11T23:53:08.437Z,5.40
2018-11-11T23:55:35.564Z,8.27
2018-11-11T23:58:02.728Z,6.17
